Time;durP1;ratioP1;P1;durP2;ratioP2;P2;SDS_P1;SDS_P2;PMS_P1;PMS_P2;Temp;Humidity;BMP_temperature;BMP_pressure;BME280_temperature;BME280_humidity;BME280_pressure;Samples;Min_cycle;Max_cycle;Signal;HPM_P1;HPM_P2
2023/03/14 00:00:13;;;;;;;11.67;5.63;;;9.70;99.90;;;;;;4789245;30;20558;-80
2023/03/14 00:02:41;;;;;;;9.40;5.33;;;9.60;99.90;;;;;;4772879;30;20562;-78
2023/03/14 00:05:08;;;;;;;10.47;5.57;;;9.50;99.90;;;;;;4772648;30;20232;-78
2023/03/14 00:07:37;;;;;;;10.87;5.83;;;9.40;99.90;;;;;;4789061;30;20204;-79
2023/03/14 00:10:07;;;;;;;10.50;5.60;;;9.40;99.90;;;;;;4772536;30;20200;-80
2023/03/14 00:12:34;;;;;;;11.93;5.90;;;9.30;99.90;;;;;;4772941;30;20215;-79
2023/03/14 00:15:03;;;;;;;11.63;5.57;;;9.30;99.90;;;;;;4772410;30;20215;-79
2023/03/14 00:17:30;;;;;;;11.47;5.93;;;9.20;99.90;;;;;;4772314;30;20224;-77
2023/03/14 00:20:03;;;;;;;12.30;6.10;;;9.20;99.90;;;;;;4772372;30;20208;-77
2023/03/14 00:22:32;;;;;;;11.20;6.00;;;9.20;99.90;;;;;;4772701;30;20195;-79
2023/03/14 00:24:59;;;;;;;12.53;5.80;;;9.20;99.90;;;;;;4757441;30;20240;-78
2023/03/14 00:27:26;;;;;;;12.80;5.70;;;9.10;99.90;;;;;;4788484;30;20214;-78
2023/03/14 00:29:53;;;;;;;12.00;5.50;;;9.10;99.90;;;;;;4788081;29;20670;-79
2023/03/14 00:32:20;;;;;;;12.90;6.00;;;9.00;99.90;;;;;;4772098;30;20228;-78
2023/03/14 00:34:47;;;;;;;9.20;5.40;;;9.00;99.90;;;;;;4788525;30;20564;-78
2023/03/14 00:37:13;;;;;;;11.83;6.20;;;8.90;99.90;;;;;;4771716;30;20611;-79
2023/03/14 00:39:41;;;;;;;10.67;5.37;;;8.90;99.90;;;;;;4772105;30;20216;-79
2023/03/14 00:42:11;;;;;;;10.27;5.40;;;8.90;99.90;;;;;;4772160;30;20224;-75
2023/03/14 00:44:38;;;;;;;9.40;5.20;;;8.80;99.90;;;;;;4788091;30;20538;-75
2023/03/14 00:47:05;;;;;;;11.73;5.63;;;8.80;99.90;;;;;;4771986;30;20219;-78
2023/03/14 00:49:32;;;;;;;10.50;5.53;;;8.80;99.90;;;;;;4771859;30;20200;-77
2023/03/14 00:51:58;;;;;;;8.63;5.00;;;8.80;99.90;;;;;;4772326;30;20565;-77
2023/03/14 00:54:25;;;;;;;10.77;5.30;;;8.80;99.90;;;;;;4788343;30;20663;-75
2023/03/14 00:56:52;;;;;;;8.97;5.30;;;8.70;99.90;;;;;;4772069;30;20211;-75
2023/03/14 00:59:19;;;;;;;9.90;5.13;;;8.80;99.90;;;;;;4771751;30;20212;-74
2023/03/14 01:01:46;;;;;;;9.70;4.87;;;8.80;99.90;;;;;;4787715;30;20200;-75
2023/03/14 01:04:13;;;;;;;9.80;5.20;;;8.80;99.90;;;;;;4787396;30;20226;-75
2023/03/14 01:06:40;;;;;;;9.53;4.87;;;8.70;99.90;;;;;;4771465;30;20646;-74
2023/03/14 01:09:07;;;;;;;10.47;5.17;;;8.70;99.90;;;;;;4771773;30;20200;-74
2023/03/14 01:11:34;;;;;;;8.77;5.20;;;8.70;99.90;;;;;;4771735;30;20216;-74
2023/03/14 01:14:02;;;;;;;9.80;4.90;;;8.70;99.90;;;;;;4771625;30;20208;-73
2023/03/14 01:16:32;;;;;;;11.57;5.20;;;8.70;99.90;;;;;;4756787;30;20196;-73
2023/03/14 01:18:59;;;;;;;11.80;4.80;;;8.70;99.90;;;;;;4787266;30;20599;-73
2023/03/14 01:21:30;;;;;;;8.10;4.77;;;8.80;99.90;;;;;;4771554;30;20212;-73
2023/03/14 01:23:58;;;;;;;12.17;5.43;;;8.80;99.90;;;;;;4787425;30;20269;-73
2023/03/14 01:26:27;;;;;;;9.53;5.20;;;8.80;99.90;;;;;;4771328;30;20239;-73
2023/03/14 01:28:55;;;;;;;9.17;4.97;;;8.80;99.90;;;;;;4787244;30;20208;-75
2023/03/14 01:31:22;;;;;;;9.00;5.10;;;8.80;99.90;;;;;;4771177;30;20231;-77
2023/03/14 01:33:50;;;;;;;8.43;4.80;;;8.80;99.90;;;;;;4787437;30;20214;-76
2023/03/14 01:36:17;;;;;;;8.37;4.83;;;8.80;99.90;;;;;;4772541;29;20211;-77
2023/03/14 01:38:44;;;;;;;7.57;4.70;;;8.80;99.90;;;;;;4805332;29;20226;-76
2023/03/14 01:41:22;;;;;;;9.17;5.10;;;8.70;99.90;;;;;;4805481;29;20208;-76
2023/03/14 01:43:49;;;;;;;9.17;4.60;;;8.70;99.90;;;;;;4788501;29;20211;-77
2023/03/14 01:46:37;;;;;;;9.70;5.00;;;8.70;99.90;;;;;;4804889;29;21024;-77
2023/03/14 01:49:25;;;;;;;9.60;4.77;;;8.70;99.90;;;;;;4788992;29;20217;-77
2023/03/14 01:52:01;;;;;;;8.03;4.40;;;8.70;99.90;;;;;;4789000;29;20211;-79
2023/03/14 01:54:31;;;;;;;11.03;4.73;;;8.70;99.90;;;;;;4788947;29;20207;-79
2023/03/14 01:57:21;;;;;;;9.27;4.77;;;8.60;99.90;;;;;;4789193;29;20293;-78
2023/03/14 01:59:53;;;;;;;9.10;4.90;;;8.60;99.90;;;;;;4788902;29;20249;-78
2023/03/14 02:02:22;;;;;;;8.90;4.77;;;8.60;99.90;;;;;;4788809;29;20196;-77
2023/03/14 02:04:50;;;;;;;9.27;4.30;;;8.50;99.90;;;;;;4805152;29;20303;-75
2023/03/14 02:07:25;;;;;;;9.47;5.00;;;8.50;99.90;;;;;;4788792;29;20208;-76
2023/03/14 02:09:53;;;;;;;8.10;4.60;;;8.40;99.90;;;;;;4788618;29;20203;-76
2023/03/14 02:12:21;;;;;;;9.57;4.70;;;8.40;99.90;;;;;;4788622;29;20208;-76
2023/03/14 02:14:48;;;;;;;8.17;4.80;;;8.40;99.90;;;;;;4788873;29;20214;-76
2023/03/14 02:17:17;;;;;;;9.57;4.60;;;8.30;99.90;;;;;;4788809;29;20202;-75
2023/03/14 02:20:07;;;;;;;9.47;4.70;;;8.30;99.90;;;;;;4788617;29;20255;-74
2023/03/14 02:22:35;;;;;;;9.60;5.03;;;8.30;99.90;;;;;;4789172;29;20561;-75
2023/03/14 02:25:10;;;;;;;7.37;4.40;;;8.20;99.90;;;;;;4788351;29;20206;-74
2023/03/14 02:27:38;;;;;;;8.47;4.57;;;8.20;99.90;;;;;;4804835;29;20202;-75
2023/03/14 02:30:15;;;;;;;9.17;4.67;;;8.20;99.90;;;;;;4788357;29;20211;-74
2023/03/14 02:32:46;;;;;;;7.87;4.53;;;8.20;99.90;;;;;;4788722;29;20607;-74
2023/03/14 02:35:18;;;;;;;9.03;4.20;;;8.20;99.90;;;;;;4788293;29;20241;-73
2023/03/14 02:37:55;;;;;;;7.93;4.57;;;8.10;99.90;;;;;;4788250;29;20258;-73
2023/03/14 02:40:22;;;;;;;9.53;4.63;;;8.00;99.90;;;;;;4788434;29;20206;-74
2023/03/14 02:42:49;;;;;;;10.20;4.50;;;8.10;99.90;;;;;;4788713;29;20646;-73
2023/03/14 02:45:15;;;;;;;8.23;4.60;;;8.10;99.90;;;;;;4804363;29;20210;-74
2023/03/14 02:47:46;;;;;;;8.50;4.47;;;8.10;99.90;;;;;;4788390;29;20211;-71
2023/03/14 02:50:18;;;;;;;9.60;4.33;;;8.00;99.90;;;;;;4788212;29;20662;-74
2023/03/14 02:52:45;;;;;;;8.70;4.70;;;8.00;99.90;;;;;;4788536;29;20217;-74
2023/03/14 02:55:12;;;;;;;11.73;4.53;;;8.00;99.90;;;;;;4791146;29;20199;-71
2023/03/14 02:57:39;;;;;;;7.33;4.20;;;8.00;99.90;;;;;;4807938;29;20215;-73
2023/03/14 03:00:08;;;;;;;6.80;4.23;;;8.00;99.90;;;;;;4807645;29;20569;-74
2023/03/14 03:02:34;;;;;;;7.97;4.47;;;8.00;99.90;;;;;;4791194;29;20580;-73
2023/03/14 03:05:02;;;;;;;7.13;4.23;;;8.00;99.90;;;;;;4791220;29;20955;-73
2023/03/14 03:07:29;;;;;;;6.97;3.97;;;8.00;99.90;;;;;;4791514;29;20242;-74
2023/03/14 03:09:56;;;;;;;7.47;4.27;;;8.10;99.90;;;;;;4807791;29;20225;-73
2023/03/14 03:12:23;;;;;;;9.10;4.17;;;8.10;99.90;;;;;;4791398;29;20215;-74
2023/03/14 03:14:50;;;;;;;9.20;4.17;;;8.10;99.90;;;;;;4807665;29;20618;-74
2023/03/14 03:17:17;;;;;;;6.60;4.03;;;8.10;99.90;;;;;;4791204;29;20206;-73
2023/03/14 03:19:44;;;;;;;6.90;4.10;;;8.10;99.90;;;;;;4807444;29;20231;-72
2023/03/14 03:22:10;;;;;;;7.53;4.30;;;8.00;99.90;;;;;;4791220;29;20199;-76
2023/03/14 03:24:37;;;;;;;6.67;3.77;;;8.00;99.90;;;;;;4807643;29;20199;-75
2023/03/14 03:27:04;;;;;;;7.33;3.97;;;7.90;99.90;;;;;;4790769;29;20220;-76
2023/03/14 03:29:31;;;;;;;7.47;4.07;;;7.90;99.90;;;;;;4791120;29;20224;-77
2023/03/14 03:31:58;;;;;;;6.83;3.70;;;8.00;99.90;;;;;;4807231;29;20227;-76
2023/03/14 03:34:24;;;;;;;8.73;4.10;;;8.00;99.90;;;;;;4790852;29;20215;-77
2023/03/14 03:36:51;;;;;;;8.10;3.90;;;7.90;99.90;;;;;;4790632;29;20250;-74
2023/03/14 03:39:19;;;;;;;7.90;4.10;;;7.80;99.90;;;;;;4790793;29;20716;-74
2023/03/14 03:41:45;;;;;;;9.30;4.23;;;7.70;99.90;;;;;;4806853;29;20213;-78
2023/03/14 03:44:13;;;;;;;8.83;4.23;;;7.70;99.90;;;;;;4790692;29;20212;-75
2023/03/14 03:46:40;;;;;;;7.43;4.30;;;7.70;99.90;;;;;;4806836;29;20194;-73
2023/03/14 03:49:07;;;;;;;7.73;4.07;;;7.70;99.90;;;;;;4791091;29;20510;-77
2023/03/14 03:51:33;;;;;;;6.23;3.97;;;7.70;99.90;;;;;;4790790;29;20275;-79
2023/03/14 03:54:00;;;;;;;7.97;3.83;;;7.70;99.90;;;;;;4790768;29;20211;-77
2023/03/14 03:56:27;;;;;;;7.43;4.10;;;7.70;99.90;;;;;;4790329;29;20214;-73
2023/03/14 03:58:54;;;;;;;6.77;3.77;;;7.60;99.90;;;;;;4806828;29;20223;-73
2023/03/14 04:01:21;;;;;;;6.47;3.93;;;7.70;99.90;;;;;;4790852;29;20195;-77
2023/03/14 04:03:48;;;;;;;6.70;4.00;;;7.70;99.90;;;;;;4807079;29;20203;-75
2023/03/14 04:06:15;;;;;;;8.37;3.80;;;7.70;99.90;;;;;;4789538;29;20262;-72
2023/03/14 04:08:43;;;;;;;7.40;4.00;;;7.70;99.90;;;;;;4790467;29;20206;-77
2023/03/14 04:11:10;;;;;;;7.63;3.90;;;7.60;99.90;;;;;;4790402;29;20215;-73
2023/03/14 04:13:37;;;;;;;7.30;4.00;;;7.60;99.90;;;;;;4790519;29;20207;-74
2023/03/14 04:16:14;;;;;;;7.23;3.80;;;7.60;99.90;;;;;;4790155;29;20315;-72
2023/03/14 04:18:41;;;;;;;7.50;3.50;;;7.50;99.90;;;;;;4790021;29;20713;-74
2023/03/14 04:21:08;;;;;;;6.47;3.77;;;7.50;99.90;;;;;;4790145;29;20204;-80
2023/03/14 04:23:34;;;;;;;7.50;3.83;;;7.50;99.90;;;;;;4790262;29;20218;-80
2023/03/14 04:26:01;;;;;;;5.83;3.73;;;7.50;99.90;;;;;;4789828;29;20206;-81
2023/03/14 04:28:28;;;;;;;6.37;3.70;;;7.50;99.90;;;;;;4790057;29;20665;-80
2023/03/14 04:30:55;;;;;;;6.10;3.60;;;7.50;99.90;;;;;;4789899;29;20227;-80
2023/03/14 04:33:22;;;;;;;6.60;3.60;;;7.40;99.90;;;;;;4789780;29;20205;-79
2023/03/14 04:35:52;;;;;;;9.23;4.00;;;7.40;99.90;;;;;;4789882;29;20658;-78
2023/03/14 04:38:19;;;;;;;8.03;4.00;;;7.40;99.90;;;;;;4805933;29;20612;-79
2023/03/14 04:40:46;;;;;;;7.17;3.63;;;7.40;99.90;;;;;;4806189;29;20658;-78
2023/03/14 04:43:13;;;;;;;7.43;3.97;;;7.40;99.90;;;;;;4789910;29;20214;-78
2023/03/14 04:45:43;;;;;;;7.60;3.90;;;7.40;99.90;;;;;;4789726;29;20207;-79
2023/03/14 04:48:10;;;;;;;6.17;3.50;;;7.40;99.90;;;;;;4790219;29;20213;-78
2023/03/14 04:50:37;;;;;;;8.67;3.70;;;7.40;99.90;;;;;;4789887;29;20318;-77
2023/03/14 04:53:04;;;;;;;7.80;3.73;;;7.40;99.90;;;;;;4789810;29;20207;-77
2023/03/14 04:55:34;;;;;;;7.43;4.07;;;7.50;99.90;;;;;;4789423;29;20204;-78
2023/03/14 04:58:01;;;;;;;6.03;3.50;;;7.50;99.90;;;;;;4789782;29;20198;-78
2023/03/14 05:00:28;;;;;;;6.60;3.53;;;7.50;99.90;;;;;;4806068;29;20206;-77
2023/03/14 05:02:55;;;;;;;7.17;3.40;;;7.50;99.90;;;;;;4806248;29;20199;-78
2023/03/14 05:05:22;;;;;;;7.97;3.93;;;7.60;99.90;;;;;;4805838;29;20289;-78
2023/03/14 05:07:48;;;;;;;5.53;3.80;;;7.60;99.90;;;;;;4789609;29;20264;-77
2023/03/14 05:10:16;;;;;;;7.63;3.57;;;7.70;99.90;;;;;;4805571;29;20196;-77
2023/03/14 05:12:42;;;;;;;7.90;3.83;;;7.70;99.90;;;;;;4789515;29;20222;-78
2023/03/14 05:15:09;;;;;;;8.63;3.83;;;7.60;99.90;;;;;;4789135;29;20200;-77
2023/03/14 05:17:36;;;;;;;7.23;3.50;;;7.70;99.90;;;;;;4789191;29;20216;-77
2023/03/14 05:20:08;;;;;;;4.57;3.10;;;7.60;99.90;;;;;;4789242;29;20224;-78
2023/03/14 05:22:35;;;;;;;5.60;3.60;;;7.60;99.90;;;;;;4789180;29;20605;-79
2023/03/14 05:25:02;;;;;;;7.73;4.17;;;7.70;99.90;;;;;;4805170;29;20211;-78
2023/03/14 05:27:29;;;;;;;6.43;3.63;;;7.70;99.90;;;;;;4789135;29;20244;-78
2023/03/14 05:29:56;;;;;;;6.47;3.80;;;7.80;99.90;;;;;;4805485;29;20658;-78
2023/03/14 05:32:23;;;;;;;6.97;3.60;;;7.80;99.90;;;;;;4789199;29;20226;-76
2023/03/14 05:34:50;;;;;;;6.83;3.60;;;7.80;99.90;;;;;;4789140;29;20202;-76
2023/03/14 05:37:17;;;;;;;6.93;3.77;;;7.70;99.90;;;;;;4788727;29;20250;-74
2023/03/14 05:39:45;;;;;;;5.47;3.43;;;7.70;99.90;;;;;;4805260;29;20314;-77
2023/03/14 05:42:13;;;;;;;5.93;3.63;;;7.60;99.90;;;;;;4789190;29;20563;-76
2023/03/14 05:44:40;;;;;;;6.47;3.73;;;7.60;99.90;;;;;;4788865;29;20209;-75
2023/03/14 05:47:06;;;;;;;6.97;3.67;;;7.60;99.90;;;;;;4789186;29;20666;-76
2023/03/14 05:49:33;;;;;;;5.17;3.37;;;7.60;99.90;;;;;;4788900;29;20215;-75
2023/03/14 05:52:00;;;;;;;6.93;3.60;;;7.60;99.90;;;;;;4789127;29;20577;-78
2023/03/14 05:54:27;;;;;;;8.07;3.97;;;7.60;99.90;;;;;;4788979;29;20220;-76
2023/03/14 05:56:54;;;;;;;7.03;3.97;;;7.70;99.90;;;;;;4788889;29;20677;-75
2023/03/14 05:59:21;;;;;;;8.40;4.00;;;7.70;99.90;;;;;;4788835;29;20235;-76
2023/03/14 06:01:47;;;;;;;8.13;3.80;;;7.70;99.90;;;;;;4789099;29;20230;-76
2023/03/14 06:04:22;;;;;;;6.77;3.70;;;7.80;99.90;;;;;;4805283;29;20198;-77
2023/03/14 06:06:49;;;;;;;6.67;3.63;;;7.90;99.90;;;;;;4788937;29;20199;-77
2023/03/14 06:09:18;;;;;;;8.17;3.90;;;8.00;99.90;;;;;;4788678;29;20207;-77
2023/03/14 06:11:46;;;;;;;5.40;3.47;;;8.10;99.90;;;;;;4805141;29;20207;-76
2023/03/14 06:14:13;;;;;;;6.43;3.97;;;8.20;99.90;;;;;;4788703;29;20211;-77
2023/03/14 06:16:39;;;;;;;6.87;3.33;;;8.50;99.90;;;;;;4788637;29;20203;-77
2023/03/14 06:19:06;;;;;;;7.47;3.57;;;8.70;99.90;;;;;;4788583;29;20280;-75
2023/03/14 06:21:33;;;;;;;7.07;3.50;;;8.70;99.90;;;;;;4788671;29;20200;-76
2023/03/14 06:24:00;;;;;;;7.63;3.80;;;8.80;99.90;;;;;;4788499;29;20727;-76
2023/03/14 06:26:28;;;;;;;5.87;3.50;;;8.90;99.90;;;;;;4804797;29;20849;-77
2023/03/14 06:28:55;;;;;;;6.63;3.90;;;8.90;99.90;;;;;;4805844;29;20203;-73
2023/03/14 06:31:22;;;;;;;8.87;3.53;;;8.90;99.90;;;;;;4792156;29;20231;-76
2023/03/14 06:33:48;;;;;;;8.47;3.50;;;8.90;99.90;;;;;;4808537;29;20196;-77
2023/03/14 06:36:15;;;;;;;5.27;3.37;;;8.90;99.90;;;;;;4808101;29;20299;-77
2023/03/14 06:38:42;;;;;;;8.60;3.70;;;8.90;99.90;;;;;;4791994;29;20825;-80
2023/03/14 06:41:10;;;;;;;6.03;3.70;;;8.90;99.90;;;;;;4791817;29;20207;-80
2023/03/14 06:43:36;;;;;;;4.90;3.23;;;9.10;99.90;;;;;;4791907;29;20207;-80
2023/03/14 06:46:03;;;;;;;5.40;3.50;;;9.10;99.90;;;;;;4791939;29;20218;-79
2023/03/14 06:48:30;;;;;;;7.63;3.70;;;9.10;99.90;;;;;;4791839;29;20239;-77
2023/03/14 06:50:57;;;;;;;5.60;3.30;;;9.10;99.90;;;;;;4791764;29;20228;-78
2023/03/14 06:53:24;;;;;;;6.07;3.23;;;9.30;99.90;;;;;;4792025;29;20204;-77
2023/03/14 06:55:51;;;;;;;6.23;3.50;;;9.30;99.90;;;;;;4776735;29;20227;-78
2023/03/14 06:58:18;;;;;;;7.17;3.73;;;9.40;99.90;;;;;;4791902;29;20215;-77
2023/03/14 07:00:45;;;;;;;4.70;3.07;;;9.40;99.90;;;;;;4791583;29;20238;-76
2023/03/14 07:03:13;;;;;;;6.90;3.50;;;9.60;99.90;;;;;;4791588;29;20655;-76
2023/03/14 07:05:41;;;;;;;8.03;3.40;;;9.60;99.90;;;;;;4807969;29;20210;-77
2023/03/14 07:08:08;;;;;;;6.40;3.13;;;9.70;99.90;;;;;;4791541;29;20211;-77
2023/03/14 07:10:35;;;;;;;7.03;3.50;;;9.80;99.90;;;;;;4807817;29;20207;-76
2023/03/14 07:13:02;;;;;;;5.90;3.33;;;9.90;99.90;;;;;;4791271;29;20211;-77
2023/03/14 07:15:29;;;;;;;6.10;3.57;;;10.10;99.90;;;;;;4791199;29;20199;-77
2023/03/14 07:17:56;;;;;;;5.97;3.20;;;10.20;99.90;;;;;;4807691;29;20210;-76
2023/03/14 07:20:23;;;;;;;6.73;3.50;;;10.40;99.90;;;;;;4791080;29;20230;-77
2023/03/14 07:22:50;;;;;;;5.40;3.37;;;10.60;99.90;;;;;;4791236;29;20200;-76
2023/03/14 07:25:17;;;;;;;5.80;3.20;;;10.60;99.90;;;;;;4791253;29;20219;-73
2023/03/14 07:27:46;;;;;;;6.43;3.27;;;10.70;99.90;;;;;;4791178;29;20207;-76
2023/03/14 07:30:14;;;;;;;6.33;3.50;;;10.80;99.90;;;;;;4790971;29;20264;-75
2023/03/14 07:32:41;;;;;;;6.97;3.20;;;10.80;99.90;;;;;;4791108;29;20208;-74
2023/03/14 07:35:08;;;;;;;5.47;3.10;;;10.80;99.90;;;;;;4790823;29;20230;-74
2023/03/14 07:37:35;;;;;;;5.13;3.03;;;11.00;99.90;;;;;;4764127;30;20240;-77
2023/03/14 07:40:05;;;;;;;5.10;3.10;;;11.00;99.90;;;;;;4772115;30;20228;-78
2023/03/14 07:42:32;;;;;;;6.23;3.10;;;11.20;99.90;;;;;;4789433;30;20666;-78
2023/03/14 07:44:58;;;;;;;7.00;3.27;;;11.40;99.90;;;;;;4773210;30;20211;-78
2023/03/14 07:47:25;;;;;;;9.33;3.37;;;11.50;99.90;;;;;;4789094;30;20192;-79
2023/03/14 07:49:52;;;;;;;5.63;3.27;;;11.60;99.90;;;;;;4789015;30;20219;-77
2023/03/14 07:52:19;;;;;;;6.27;3.20;;;11.80;99.90;;;;;;4773235;30;20204;-79
2023/03/14 07:54:46;;;;;;;8.57;3.20;;;11.90;99.90;;;;;;4788992;30;20257;-78
2023/03/14 07:57:12;;;;;;;6.80;3.20;;;12.20;99.90;;;;;;4777295;29;20689;-72
2023/03/14 07:59:40;;;;;;;5.57;3.10;;;12.20;99.90;;;;;;4804416;29;20228;-75
2023/03/14 08:02:11;;;;;;;5.70;3.00;;;12.20;99.90;;;;;;4773122;30;20304;-74
2023/03/14 08:04:39;;;;;;;4.53;2.93;;;12.30;99.90;;;;;;4780263;29;20206;-76
2023/03/14 08:07:06;;;;;;;5.50;3.30;;;12.40;99.90;;;;;;4790392;29;20219;-75
2023/03/14 08:09:33;;;;;;;7.03;3.33;;;12.50;99.90;;;;;;4790628;29;20204;-74
2023/03/14 08:12:00;;;;;;;6.40;3.33;;;12.60;99.90;;;;;;4790318;29;20218;-73
2023/03/14 08:14:28;;;;;;;5.63;2.97;;;12.70;99.90;;;;;;4772795;30;20214;-77
2023/03/14 08:16:56;;;;;;;4.73;3.07;;;13.00;99.90;;;;;;4788947;30;20208;-79
2023/03/14 08:19:24;;;;;;;7.97;3.17;;;13.00;99.90;;;;;;4772590;30;20647;-77
2023/03/14 08:21:51;;;;;;;7.73;3.33;;;13.10;99.90;;;;;;4772760;30;20312;-77
2023/03/14 08:24:18;;;;;;;7.03;3.10;;;13.10;99.90;;;;;;4772369;30;20205;-75
2023/03/14 08:26:45;;;;;;;6.93;3.20;;;13.30;99.90;;;;;;4772650;30;20224;-80
2023/03/14 08:29:12;;;;;;;5.83;3.43;;;13.50;99.90;;;;;;4788692;30;20208;-79
2023/03/14 08:31:39;;;;;;;5.93;3.30;;;13.80;99.90;;;;;;4788661;30;20263;-80
2023/03/14 08:34:06;;;;;;;3.97;2.90;;;14.10;99.90;;;;;;4788244;30;20204;-82
2023/03/14 08:36:33;;;;;;;5.97;2.97;;;14.30;99.90;;;;;;4771971;30;20285;-82
2023/03/14 08:39:00;;;;;;;5.83;3.30;;;14.50;99.90;;;;;;4772036;30;20208;-83
2023/03/14 08:41:28;;;;;;;6.43;3.40;;;14.80;99.90;;;;;;4772691;30;20232;-81
2023/03/14 08:43:54;;;;;;;6.77;3.30;;;15.10;99.90;;;;;;4772164;30;20227;-83
2023/03/14 08:46:27;;;;;;;6.67;3.30;;;15.30;99.90;;;;;;4770945;29;20299;-80
2023/03/14 08:48:56;;;;;;;4.73;3.23;;;14.90;99.90;;;;;;4771466;30;20211;-82
2023/03/14 08:51:23;;;;;;;6.23;3.00;;;15.00;99.90;;;;;;4771759;29;20203;-82
2023/03/14 08:53:50;;;;;;;6.30;3.50;;;14.80;99.90;;;;;;4798006;29;20643;-77
2023/03/14 08:56:17;;;;;;;6.67;3.27;;;14.80;99.90;;;;;;4777821;29;20208;-80
2023/03/14 08:58:44;;;;;;;7.30;3.60;;;14.90;99.90;;;;;;4789651;29;20199;-78
2023/03/14 09:01:11;;;;;;;6.53;3.40;;;14.60;99.90;;;;;;4794881;29;20224;-79
2023/03/14 09:03:38;;;;;;;5.37;3.47;;;14.90;99.90;;;;;;4788207;30;20208;-77
2023/03/14 09:06:08;;;;;;;6.07;3.27;;;15.00;99.90;;;;;;4771639;30;20667;-77
2023/03/14 09:08:35;;;;;;;6.73;3.10;;;14.80;99.90;;;;;;4773784;29;20203;-77
2023/03/14 09:11:08;;;;;;;6.33;3.40;;;14.70;99.90;;;;;;4805902;29;20286;-77
2023/03/14 09:13:36;;;;;;;6.60;3.47;;;14.70;99.90;;;;;;4789757;29;20238;-75
2023/03/14 09:16:03;;;;;;;6.50;3.00;;;14.70;99.90;;;;;;4789371;29;20605;-78
2023/03/14 09:18:31;;;;;;;6.90;3.07;;;14.80;99.90;;;;;;4774643;29;20207;-84
2023/03/14 09:20:58;;;;;;;5.07;3.03;;;14.90;99.90;;;;;;4789677;29;20223;-79
2023/03/14 09:23:25;;;;;;;5.37;3.30;;;15.20;99.90;;;;;;4789443;29;20216;-77
2023/03/14 09:25:56;;;;;;;7.20;3.27;;;15.30;99.90;;;;;;4781513;29;20204;-74
2023/03/14 09:28:24;;;;;;;5.27;3.07;;;15.40;99.90;;;;;;4787652;29;20218;-75
2023/03/14 09:30:51;;;;;;;5.83;3.20;;;15.90;99.90;;;;;;4789777;29;20223;-73
2023/03/14 09:33:18;;;;;;;6.10;3.20;;;16.20;99.90;;;;;;4785009;29;20211;-84
2023/03/14 09:35:45;;;;;;;8.17;3.40;;;16.30;99.90;;;;;;4806366;29;20204;-84
2023/03/14 09:38:12;;;;;;;5.83;3.57;;;16.90;99.90;;;;;;4784542;29;20235;-83
2023/03/14 09:40:40;;;;;;;6.97;3.20;;;17.00;99.90;;;;;;4789908;29;20232;-73
2023/03/14 09:43:14;;;;;;;4.60;3.13;;;16.80;99.90;;;;;;4771470;30;20212;-73
2023/03/14 09:45:43;;;;;;;5.73;3.33;;;16.90;99.90;;;;;;4771266;30;20199;-81
2023/03/14 09:48:20;;;;;;;7.10;3.40;;;16.80;99.90;;;;;;4771547;30;20728;-90
2023/03/14 09:50:53;;;;;;;5.50;3.20;;;16.70;99.90;;;;;;4787608;30;20214;-72
2023/03/14 09:53:26;;;;;;;6.90;3.10;;;16.80;99.90;;;;;;4787582;30;20212;-92
2023/03/14 09:55:55;;;;;;;6.13;3.17;;;16.80;99.90;;;;;;4757475;30;20663;-90
2023/03/14 09:58:23;;;;;;;5.40;3.00;;;17.30;99.90;;;;;;4771857;30;20228;-72
2023/03/14 10:00:54;;;;;;;5.17;2.90;;;17.40;99.00;;;;;;4771134;30;20228;-72
2023/03/14 10:03:23;;;;;;;4.73;2.60;;;17.60;98.30;;;;;;4771713;30;20200;-72
2023/03/14 10:05:50;;;;;;;5.87;2.80;;;17.80;96.20;;;;;;4776059;30;20261;-86
2023/03/14 10:08:17;;;;;;;5.23;2.37;;;18.00;95.40;;;;;;4776467;30;20213;-85
2023/03/14 10:10:44;;;;;;;5.30;2.70;;;18.00;96.00;;;;;;4776233;30;20655;-83
2023/03/14 10:13:24;;;;;;;6.07;3.20;;;17.80;94.60;;;;;;4778018;30;20291;-89
2023/03/14 10:15:59;;;;;;;4.03;2.70;;;17.60;95.40;;;;;;4786124;30;20212;-88
2023/03/14 10:18:29;;;;;;;6.27;2.70;;;17.40;95.40;;;;;;4789746;30;20238;-84
2023/03/14 10:21:18;;;;;;;5.43;2.40;;;16.90;97.00;;;;;;4795644;30;20711;-86
2023/03/14 10:23:46;;;;;;;9.63;2.63;;;16.70;98.70;;;;;;4775759;30;20197;-90
2023/03/14 10:26:17;;;;;;;5.57;2.60;;;16.60;99.30;;;;;;4779956;30;20205;-88
2023/03/14 10:28:52;;;;;;;4.60;2.63;;;16.50;99.40;;;;;;4794606;30;20207;-87
2023/03/14 10:31:24;;;;;;;4.53;2.53;;;16.30;99.90;;;;;;4775641;30;20223;-80
2023/03/14 10:34:04;;;;;;;5.40;2.57;;;16.10;99.90;;;;;;4774855;30;20251;-85
2023/03/14 10:36:34;;;;;;;6.30;2.50;;;16.10;99.90;;;;;;4774667;30;20247;-83
2023/03/14 10:39:26;;;;;;;10.77;2.90;;;16.50;99.90;;;;;;4774988;30;20581;-86
2023/03/14 10:42:01;;;;;;;6.23;2.60;;;17.00;99.60;;;;;;4777051;30;20216;-86
2023/03/14 10:44:30;;;;;;;4.53;2.70;;;17.20;98.40;;;;;;4788490;30;20207;-87
2023/03/14 10:47:00;;;;;;;6.30;2.60;;;16.90;99.10;;;;;;4780139;30;20208;-90
2023/03/14 10:49:34;;;;;;;4.73;2.57;;;16.80;99.40;;;;;;4775136;30;20201;-88
2023/03/14 10:52:09;;;;;;;7.37;3.00;;;16.50;99.90;;;;;;4775055;30;20212;-82
2023/03/14 10:54:35;;;;;;;4.93;2.77;;;16.40;99.90;;;;;;4791221;30;20199;-89
2023/03/14 10:57:05;;;;;;;4.67;2.90;;;16.20;99.90;;;;;;4776325;30;20205;-89
2023/03/14 10:59:38;;;;;;;5.13;2.77;;;16.00;99.90;;;;;;4776691;30;20715;-87
2023/03/14 11:02:32;;;;;;;7.77;2.80;;;16.00;99.90;;;;;;4798267;30;20272;-90
2023/03/14 11:05:04;;;;;;;4.17;2.60;;;16.00;99.90;;;;;;4776207;30;20196;-80
2023/03/14 11:07:31;;;;;;;4.63;2.80;;;16.00;99.90;;;;;;4773914;30;20724;-74
2023/03/14 11:10:32;;;;;;;7.33;3.00;;;15.90;99.90;;;;;;4773901;30;20207;-74
2023/03/14 11:13:26;;;;;;;4.87;2.87;;;15.80;99.90;;;;;;4702348;30;20210;-74
2023/03/14 11:16:22;;;;;;;9.10;3.57;;;15.80;99.90;;;;;;4701814;30;20236;-74
2023/03/14 11:18:54;;;;;;;8.97;3.00;;;15.90;99.90;;;;;;4702259;30;20207;-76
2023/03/14 11:21:39;;;;;;;6.43;2.80;;;16.10;99.90;;;;;;4702224;30;20234;-73
2023/03/14 11:24:32;;;;;;;5.47;3.27;;;16.10;99.90;;;;;;4702042;30;20219;-73
2023/03/14 11:27:42;;;;;;;4.90;2.93;;;16.20;99.90;;;;;;4689155;30;20211;-73
2023/03/14 11:30:15;;;;;;;5.20;2.87;;;16.10;99.90;;;;;;4667453;30;20212;-70
2023/03/14 11:32:54;;;;;;;5.97;2.77;;;15.90;99.90;;;;;;4667362;30;20770;-74
2023/03/14 11:35:28;;;;;;;4.40;2.83;;;15.70;99.90;;;;;;4667296;30;20247;-71
2023/03/14 11:38:35;;;;;;;4.73;2.70;;;15.50;99.90;;;;;;4678603;30;20244;-76
2023/03/14 11:41:39;;;;;;;5.50;3.10;;;15.40;99.90;;;;;;4681738;30;20276;-74
2023/03/14 11:44:21;;;;;;;5.77;3.07;;;15.20;99.90;;;;;;4663874;30;20221;-72
2023/03/14 11:47:14;;;;;;;7.37;3.20;;;15.10;99.90;;;;;;4682044;30;20224;-77
2023/03/14 11:49:51;;;;;;;6.90;3.57;;;14.70;99.90;;;;;;4688577;30;20404;-73
2023/03/14 11:52:18;;;;;;;7.17;3.40;;;14.60;99.90;;;;;;4719415;30;20213;-71
2023/03/14 11:54:56;;;;;;;8.23;3.60;;;14.50;99.90;;;;;;4733379;30;20342;-72
2023/03/14 12:08:44;;;;;;;6.60;3.40;;;14.50;99.90;;;;;;5051619;24;21038;-76
2023/03/14 12:11:13;;;;;;;7.43;3.70;;;14.70;99.90;;;;;;4793029;29;20203;-79
2023/03/14 12:13:45;;;;;;;7.63;3.87;;;15.20;99.90;;;;;;4823670;29;20199;-76
2023/03/14 12:16:32;;;;;;;6.07;3.63;;;16.10;99.90;;;;;;4788094;29;20211;-77
2023/03/14 12:19:22;;;;;;;7.47;3.73;;;16.30;99.90;;;;;;4791592;29;20285;-79
2023/03/14 12:21:59;;;;;;;8.27;3.90;;;16.20;99.90;;;;;;4801993;29;20407;-80
2023/03/14 12:24:29;;;;;;;8.43;3.73;;;16.00;99.90;;;;;;4822745;29;20199;-81
2023/03/14 12:27:01;;;;;;;7.73;4.03;;;15.80;99.90;;;;;;4788865;29;20295;-82
2023/03/14 12:29:30;;;;;;;9.03;4.27;;;15.60;99.90;;;;;;4789652;29;20199;-80
2023/03/14 12:32:20;;;;;;;6.47;3.80;;;15.40;99.90;;;;;;4791866;29;20198;-78
2023/03/14 12:34:47;;;;;;;7.37;4.03;;;15.20;99.90;;;;;;4820399;29;20707;-83
2023/03/14 12:37:41;;;;;;;8.43;3.93;;;15.00;99.90;;;;;;4807208;29;20673;-83
2023/03/14 12:40:09;;;;;;;6.83;3.93;;;14.90;99.90;;;;;;4805771;29;20776;-78
2023/03/14 12:42:44;;;;;;;7.10;4.27;;;14.90;99.90;;;;;;4816250;29;20187;-80
2023/03/14 12:45:30;;;;;;;9.60;4.40;;;14.80;99.90;;;;;;4807117;29;20203;-79
2023/03/14 12:48:10;;;;;;;8.67;4.30;;;14.60;99.90;;;;;;4792266;29;20608;-84
2023/03/14 12:50:46;;;;;;;9.73;4.23;;;14.50;99.90;;;;;;4807447;29;20209;-84
2023/03/14 12:53:41;;;;;;;8.90;4.00;;;14.40;99.90;;;;;;4809364;29;20262;-80
2023/03/14 12:56:17;;;;;;;8.67;4.70;;;14.30;99.90;;;;;;4822847;29;20468;-76
2023/03/14 12:59:00;;;;;;;7.50;3.77;;;14.30;99.90;;;;;;4820129;29;20201;-82
2023/03/14 13:01:27;;;;;;;8.03;4.00;;;14.10;99.90;;;;;;4800143;29;20233;-80
2023/03/14 13:04:02;;;;;;;7.40;4.00;;;14.00;99.90;;;;;;4793281;29;20311;-76
2023/03/14 13:06:53;;;;;;;7.37;4.17;;;13.90;99.90;;;;;;4806256;29;20207;-76
2023/03/14 13:09:32;;;;;;;8.27;3.90;;;13.80;99.90;;;;;;4794907;29;20710;-82
2023/03/14 13:12:14;;;;;;;6.77;3.97;;;13.70;99.90;;;;;;4788691;29;20201;-76
2023/03/14 13:14:48;;;;;;;8.37;4.10;;;13.40;99.90;;;;;;4786563;29;20586;-76
2023/03/14 13:17:24;;;;;;;7.20;4.00;;;13.20;99.90;;;;;;4800517;29;20678;-84